Broadwell, Kentucky
Current Conditions -  °F | °C
As of 2:15 PM on Monday 20 Oct 2014 (Local Time) from KIOB Reporting Station
Scattered Clouds Scattered Clouds  
Wind Chill: 57°   Ceiling: Unl
Heat Index: 57°   Visibility: 10mi
Dew Point: 50°   Wind: 13mph
Humidity: 77%   Direction: 250°WSW
Pressure: 29.98"   Gusts: 18mph
Location:  38.4145°N, 84.2859°W
Report Text: KIOB 201815Z AUTO 25011G16KT 210V270 10SM SCT110 14/10 A2998 RMK AO2 P0001
Loading
Personal Weather Stations






























Interactive Weather Map
Tropical Storm Tracking
New forecast layout! Learn more

10-Day Weather Forecast

Advertisements
Track Severe Weather on mobile